createdAt,value
2022-09-28T00:01:43.703Z,100093.75
2022-09-28T00:05:09.070Z,100095.56
2022-09-28T00:08:31.969Z,100093.06
2022-09-28T00:11:56.730Z,100087.06
2022-09-28T00:15:20.507Z,100086.31
2022-09-28T00:18:44.080Z,100090.72
2022-09-28T00:22:07.863Z,100076.16
2022-09-28T00:25:30.622Z,100081.34
2022-09-28T00:28:54.193Z,100083.22
2022-09-28T00:32:17.458Z,100084.97
2022-09-28T00:35:40.623Z,100072.97
2022-09-28T00:39:08.816Z,100072.16
2022-09-28T00:42:31.767Z,100074.84
2022-09-28T00:46:01.043Z,100078.34
2022-09-28T00:49:32.744Z,100080.97
2022-09-28T00:53:00.107Z,100081.16
2022-09-28T00:56:27.896Z,100076.91
2022-09-28T00:59:51.364Z,100068.34
2022-09-28T01:03:15.127Z,100073.53
2022-09-28T01:06:39.985Z,100069.25
2022-09-28T01:10:03.723Z,100071.00
2022-09-28T01:13:28.988Z,100068.44
2022-09-28T01:16:59.459Z,100071.16
2022-09-28T01:20:51.704Z,100061.72
2022-09-28T01:24:30.858Z,100065.28
2022-09-28T01:27:59.745Z,100062.72
2022-09-28T01:31:29.053Z,100059.41
2022-09-28T01:34:59.995Z,100061.16
2022-09-28T01:38:27.360Z,100063.00
2022-09-28T01:41:54.111Z,100065.63
2022-09-28T01:45:23.996Z,100059.66
2022-09-28T01:48:53.995Z,100067.53
2022-09-28T01:52:20.911Z,100058.97
2022-09-28T01:55:47.493Z,100046.97
2022-09-28T01:59:15.604Z,100059.94
2022-09-28T02:02:45.230Z,100047.88
2022-09-28T02:06:13.642Z,100059.13
2022-09-28T02:09:41.825Z,100047.94
2022-09-28T02:13:08.878Z,100050.53
2022-09-28T02:16:37.095Z,100049.78
2022-09-28T02:20:01.806Z,100055.91
2022-09-28T02:23:28.819Z,100053.44
2022-09-28T02:26:53.825Z,100056.94
2022-09-28T02:30:18.432Z,100046.75
2022-09-28T02:33:45.686Z,100053.59
2022-09-28T02:37:10.385Z,100057.09
2022-09-28T02:40:35.754Z,100051.06
2022-09-28T02:44:06.547Z,100042.50
2022-09-28T02:47:41.591Z,100031.44
2022-09-28T02:51:15.712Z,100035.59
2022-09-28T02:54:58.128Z,100016.94
2022-09-28T02:58:32.980Z,100022.84
2022-09-28T03:02:06.537Z,100022.91
2022-09-28T03:05:39.164Z,100030.72
2022-09-28T03:09:07.018Z,100022.31
2022-09-28T03:12:33.886Z,100021.47
2022-09-28T03:16:11.938Z,100018.88
2022-09-28T03:19:37.520Z,100022.28
2022-09-28T03:23:23.304Z,100020.47
2022-09-28T03:26:46.282Z,100023.81
2022-09-28T03:30:13.644Z,100017.72
2022-09-28T03:33:38.133Z,100014.22
2022-09-28T03:37:02.026Z,100022.75
2022-09-28T03:40:26.070Z,100009.75
2022-09-28T03:43:49.579Z,100020.03
2022-09-28T03:47:16.534Z,100009.66
2022-09-28T03:50:40.209Z,100010.38
2022-09-28T03:54:03.682Z,100013.69
2022-09-28T03:57:26.645Z,100006.69
2022-09-28T04:00:49.764Z,99999.00
2022-09-28T04:04:15.034Z,100004.84
2022-09-28T04:07:37.977Z,100004.78
2022-09-28T04:11:01.034Z,99996.19
2022-09-28T04:14:24.032Z,100010.78
2022-09-28T04:17:46.968Z,100004.75
2022-09-28T04:21:14.526Z,100002.03
2022-09-28T04:24:37.381Z,100002.88
2022-09-28T04:28:17.441Z,99996.78
2022-09-28T04:31:41.808Z,99994.19
2022-09-28T04:35:04.692Z,100002.72
2022-09-28T04:38:51.334Z,100007.06
2022-09-28T04:42:12.840Z,99995.81
2022-09-28T04:45:35.828Z,99991.38
2022-09-28T04:48:58.759Z,99989.75
2022-09-28T04:52:21.513Z,99988.88
2022-09-28T04:55:45.597Z,99984.44
2022-09-28T04:59:08.452Z,99968.91
2022-09-28T05:02:31.565Z,99955.28
2022-09-28T05:05:54.887Z,99928.13
2022-09-28T05:09:18.087Z,99973.03
2022-09-28T05:12:43.163Z,99963.50
2022-09-28T05:16:06.167Z,99968.53
2022-09-28T05:19:30.513Z,99975.19
2022-09-28T05:22:53.166Z,99970.78
2022-09-28T05:26:15.817Z,99972.47
2022-09-28T05:29:40.011Z,99972.34
2022-09-28T05:33:02.458Z,99971.38
2022-09-28T05:36:27.297Z,99967.84
2022-09-28T05:39:50.219Z,99967.59
2022-09-28T05:43:13.057Z,99958.06
2022-09-28T05:46:37.368Z,99971.75
2022-09-28T05:50:00.061Z,99968.25
2022-09-28T05:53:23.495Z,99969.88
2022-09-28T05:56:46.040Z,99970.69
2022-09-28T06:00:09.927Z,99968.94
2022-09-28T06:03:34.322Z,99969.84
2022-09-28T06:06:56.977Z,99970.72
2022-09-28T06:10:20.544Z,99962.78
2022-09-28T06:13:43.403Z,99962.91
2022-09-28T06:17:06.313Z,99965.31
2022-09-28T06:20:33.521Z,99967.03
2022-09-28T06:23:56.379Z,99966.94
2022-09-28T06:27:19.237Z,99968.84
2022-09-28T06:30:43.575Z,99970.38
2022-09-28T06:34:06.182Z,99982.41
2022-09-28T06:37:33.341Z,99972.13
2022-09-28T06:40:56.024Z,99976.94
2022-09-28T06:44:18.998Z,99976.75
2022-09-28T06:47:42.421Z,99981.06
2022-09-28T06:51:05.076Z,99974.16
2022-09-28T06:54:29.261Z,99984.13
2022-09-28T06:58:00.724Z,99983.91
2022-09-28T07:01:23.609Z,99982.69
2022-09-28T07:04:46.847Z,99969.84
2022-09-28T07:08:10.217Z,99971.28
2022-09-28T07:11:41.263Z,99983.06
2022-09-28T07:15:05.264Z,99972.53
2022-09-28T07:18:30.298Z,99980.09
2022-09-28T07:22:04.107Z,99970.41
2022-09-28T07:25:32.052Z,99973.56
2022-09-28T07:28:56.962Z,99962.63
2022-09-28T07:32:19.727Z,99963.09
2022-09-28T07:35:43.490Z,99956.84
2022-09-28T07:39:06.865Z,99968.63
2022-09-28T07:42:30.760Z,99961.31
2022-09-28T07:45:56.341Z,99964.19
2022-09-28T07:49:19.723Z,99961.41
2022-09-28T07:52:43.512Z,99954.88
2022-09-28T07:56:09.233Z,99961.34
2022-09-28T07:59:33.013Z,99950.75
2022-09-28T08:02:57.207Z,99960.63
2022-09-28T08:06:20.264Z,99961.81
2022-09-28T08:09:42.820Z,99960.19
2022-09-28T08:13:08.685Z,99952.97
2022-09-28T08:16:32.928Z,99956.81
2022-09-28T08:20:14.634Z,99947.88
2022-09-28T08:23:37.593Z,99947.34
2022-09-28T08:27:01.100Z,99939.41
2022-09-28T08:30:23.838Z,99946.72
2022-09-28T08:33:46.986Z,99943.41
2022-09-28T08:37:12.929Z,99931.69
2022-09-28T08:40:45.343Z,99930.09
2022-09-28T08:44:17.036Z,99927.41
2022-09-28T08:48:07.466Z,99927.25
2022-09-28T08:51:35.855Z,99927.28
2022-09-28T08:55:06.593Z,99931.75
2022-09-28T08:58:33.550Z,99930.03
2022-09-28T09:02:00.969Z,99928.91
2022-09-28T09:05:37.495Z,99934.44
2022-09-28T09:09:10.133Z,99918.78
2022-09-28T09:12:43.328Z,99912.88
2022-09-28T09:16:14.682Z,99927.13
2022-09-28T09:19:48.552Z,99924.59
2022-09-28T09:23:21.347Z,99929.56
2022-09-28T09:26:45.326Z,99914.09
2022-09-28T09:30:13.959Z,99916.59
2022-09-28T09:33:58.117Z,99919.22
2022-09-28T09:37:36.120Z,99904.97
2022-09-28T09:45:20.885Z,99902.38
2022-09-28T09:48:53.121Z,99906.97
2022-09-28T09:52:24.068Z,99908.56
2022-09-28T09:55:50.884Z,99900.44
2022-09-28T09:59:18.867Z,99904.41
2022-09-28T10:02:45.944Z,99892.25
2022-09-28T10:06:15.124Z,99893.00
2022-09-28T10:09:41.542Z,99865.16
2022-09-28T10:13:05.537Z,99877.41
2022-09-28T10:16:28.778Z,99876.41
2022-09-28T10:19:52.988Z,99868.78
2022-09-28T10:23:23.723Z,99867.47
2022-09-28T10:26:52.315Z,99871.50
2022-09-28T10:30:20.094Z,99852.78
2022-09-28T10:33:42.950Z,99847.63
2022-09-28T10:37:11.546Z,99858.22
2022-09-28T10:40:42.145Z,99850.88
2022-09-28T10:44:10.967Z,99851.38
2022-09-28T10:47:35.987Z,99850.97
2022-09-28T10:51:04.681Z,99857.38
2022-09-28T10:54:30.915Z,99849.91
2022-09-28T10:57:54.491Z,99851.50
2022-09-28T11:01:20.875Z,99840.88
2022-09-28T11:04:45.839Z,99845.38
2022-09-28T11:08:09.617Z,99843.34
2022-09-28T11:11:42.719Z,99842.19
2022-09-28T11:15:08.339Z,99831.72
2022-09-28T11:18:34.273Z,99825.09
2022-09-28T11:21:57.439Z,99829.34
2022-09-28T11:25:25.916Z,99824.78
2022-09-28T11:28:53.491Z,99827.28
2022-09-28T11:32:16.758Z,99816.72
2022-09-28T11:35:50.570Z,99818.75
2022-09-28T11:39:18.315Z,99804.16
2022-09-28T11:42:51.957Z,99807.97
2022-09-28T11:46:25.974Z,99809.56
2022-09-28T11:49:52.823Z,99812.41
2022-09-28T11:53:22.334Z,99823.19
2022-09-28T11:56:47.964Z,99801.66
2022-09-28T12:00:17.269Z,99795.81
2022-09-28T12:03:48.427Z,99812.16
2022-09-28T12:07:18.340Z,99806.41
2022-09-28T12:10:48.884Z,99809.50
2022-09-28T12:14:20.655Z,99806.88
2022-09-28T12:17:48.077Z,99806.34
2022-09-28T12:21:35.342Z,99808.13
2022-09-28T12:25:00.144Z,99801.66
2022-09-28T12:28:35.186Z,99792.53
2022-09-28T12:32:09.922Z,99791.06
2022-09-28T12:35:44.766Z,99790.03
2022-09-28T12:39:35.544Z,99781.31
2022-09-28T12:43:19.733Z,99772.31
2022-09-28T12:47:06.103Z,99770.00
2022-09-28T12:50:39.876Z,99771.47
2022-09-28T12:54:20.322Z,99775.25
2022-09-28T12:57:57.106Z,99778.63
2022-09-28T13:01:41.821Z,99771.25
2022-09-28T13:05:21.175Z,99770.41
2022-09-28T13:08:53.910Z,99767.13
2022-09-28T13:12:27.173Z,99784.72
2022-09-28T13:15:58.957Z,99764.41
2022-09-28T13:19:33.175Z,99761.19
2022-09-28T13:23:05.686Z,99745.59
2022-09-28T13:26:30.390Z,99746.63
2022-09-28T13:29:57.648Z,99739.84
2022-09-28T13:33:34.127Z,99722.75
2022-09-28T13:37:24.685Z,99726.69
2022-09-28T13:41:20.182Z,99712.09
2022-09-28T13:45:11.182Z,99725.84
2022-09-28T13:48:48.983Z,99733.50
2022-09-28T13:52:15.672Z,99743.59
2022-09-28T13:55:54.359Z,99752.28
2022-09-28T13:59:25.308Z,99748.88
2022-09-28T14:02:55.055Z,99743.38
2022-09-28T14:06:29.153Z,99749.50
2022-09-28T14:10:18.224Z,99749.34
2022-09-28T14:14:01.041Z,99747.13
2022-09-28T14:17:54.824Z,99750.25
2022-09-28T14:21:52.500Z,99729.69
2022-09-28T14:25:18.841Z,99735.13
2022-09-28T14:28:55.012Z,99731.00
2022-09-28T14:32:35.092Z,99739.59
2022-09-28T14:36:02.841Z,99734.75
2022-09-28T14:39:48.136Z,99742.59
2022-09-28T14:43:37.403Z,99741.56
2022-09-28T14:47:27.808Z,99733.41
2022-09-28T14:50:51.993Z,99700.28
2022-09-28T14:54:22.945Z,99752.69
2022-09-28T14:57:53.380Z,99741.00
2022-09-28T15:01:23.922Z,99741.66
2022-09-28T15:04:51.362Z,99733.91
2022-09-28T15:08:14.341Z,99748.88
2022-09-28T15:11:42.111Z,99736.38
2022-09-28T15:15:08.967Z,99751.75
2022-09-28T15:18:54.041Z,99745.88
2022-09-28T15:22:18.128Z,99744.38
2022-09-28T15:25:41.393Z,99743.94
2022-09-28T15:29:19.208Z,99740.81
2022-09-28T15:32:42.062Z,99737.84
2022-09-28T15:36:07.565Z,99747.13
2022-09-28T15:39:34.579Z,99744.06
2022-09-28T15:42:59.401Z,99729.38
2022-09-28T15:46:25.413Z,99748.09
2022-09-28T15:49:57.551Z,99746.66
2022-09-28T15:53:21.017Z,99749.75
2022-09-28T15:56:54.119Z,99737.38
2022-09-28T16:00:30.186Z,99740.59
2022-09-28T16:03:55.397Z,99738.25
2022-09-28T16:07:25.421Z,99736.06
2022-09-28T16:11:08.347Z,99737.41
2022-09-28T16:14:31.415Z,99736.06
2022-09-28T16:17:56.524Z,99726.88
2022-09-28T16:21:45.698Z,99725.31
2022-09-28T16:25:20.025Z,99723.03
2022-09-28T16:28:52.409Z,99724.75
2022-09-28T16:32:38.924Z,99728.28
2022-09-28T16:36:04.845Z,99718.38
2022-09-28T16:39:30.368Z,99732.00
2022-09-28T16:42:55.173Z,99721.81
2022-09-28T16:46:20.427Z,99725.97
2022-09-28T16:49:43.651Z,99720.81
2022-09-28T16:53:32.415Z,99723.34
2022-09-28T16:56:57.216Z,99724.25
2022-09-28T17:00:23.353Z,99723.41
2022-09-28T17:03:48.058Z,99721.75
2022-09-28T17:07:12.448Z,99715.75
2022-09-28T17:11:02.152Z,99715.59
2022-09-28T17:14:23.665Z,99708.59
2022-09-28T17:22:34.062Z,99713.66
2022-09-28T17:25:59.580Z,99705.09
2022-09-28T17:29:24.177Z,99713.59
2022-09-28T17:32:47.678Z,99711.88
2022-09-28T17:36:16.758Z,99704.16
2022-09-28T17:39:39.405Z,99715.22
2022-09-28T17:43:04.213Z,99712.66
2022-09-28T17:46:32.435Z,99704.81
2022-09-28T17:49:55.764Z,99705.66
2022-09-28T17:53:18.927Z,99696.16
2022-09-28T17:56:42.709Z,99700.31
2022-09-28T18:00:06.387Z,99702.06
2022-09-28T18:03:30.879Z,99705.44
2022-09-28T18:06:53.431Z,99702.75
2022-09-28T18:10:20.217Z,99699.41
2022-09-28T18:13:44.064Z,99686.22
2022-09-28T18:17:06.713Z,99685.72
2022-09-28T18:20:31.620Z,99697.69
2022-09-28T18:23:54.375Z,99691.78
2022-09-28T18:27:17.850Z,99697.09
2022-09-28T18:30:42.923Z,99700.41
2022-09-28T18:34:06.428Z,99690.81
2022-09-28T18:37:30.617Z,99684.88
2022-09-28T18:40:55.059Z,99682.28
2022-09-28T18:44:17.663Z,99677.91
2022-09-28T18:47:40.823Z,99685.59
2022-09-28T18:51:03.650Z,99678.75
2022-09-28T18:54:28.381Z,99680.38
2022-09-28T18:57:51.755Z,99684.75
2022-09-28T19:01:32.095Z,99679.66
2022-09-28T19:04:55.183Z,99684.97
2022-09-28T19:08:18.282Z,99691.00
2022-09-28T19:11:42.848Z,99689.34
2022-09-28T19:15:06.270Z,99678.13
2022-09-28T19:18:33.068Z,99680.69
2022-09-28T19:21:55.746Z,99674.63
2022-09-28T19:25:18.577Z,99667.88
2022-09-28T19:28:45.120Z,99662.66
2022-09-28T19:32:07.772Z,99662.66
2022-09-28T19:35:30.735Z,99642.66
2022-09-28T19:38:55.281Z,99668.56
2022-09-28T19:42:18.397Z,99659.31
2022-09-28T19:45:43.277Z,99662.94
2022-09-28T19:49:07.398Z,99637.19
2022-09-28T19:52:30.448Z,99665.53
2022-09-28T19:55:54.838Z,99681.94
2022-09-28T19:59:18.217Z,99664.78
2022-09-28T20:02:42.776Z,99674.13
2022-09-28T20:06:05.877Z,99675.13
2022-09-28T20:09:29.138Z,99664.19
2022-09-28T20:12:53.742Z,99672.69
2022-09-28T20:16:21.113Z,99669.31
2022-09-28T20:19:45.492Z,99665.03
2022-09-28T20:23:08.452Z,99668.66
2022-09-28T20:26:36.429Z,99658.47
2022-09-28T20:30:00.207Z,99666.22
2022-09-28T20:33:28.896Z,99667.06
2022-09-28T20:36:54.423Z,99645.84
2022-09-28T20:40:18.640Z,99663.00
2022-09-28T20:43:43.007Z,99658.78
2022-09-28T20:47:06.066Z,99663.28
2022-09-28T20:50:29.236Z,99659.56
2022-09-28T20:53:55.163Z,99658.97
2022-09-28T20:57:21.669Z,99649.72
2022-09-28T21:00:44.362Z,99659.81
2022-09-28T21:04:08.446Z,99650.47
2022-09-28T21:07:31.609Z,99656.53
2022-09-28T21:10:55.801Z,99653.84
2022-09-28T21:14:19.236Z,99646.88
2022-09-28T21:17:41.923Z,99644.25
2022-09-28T21:21:08.068Z,99627.50
2022-09-28T21:24:31.734Z,99635.84
2022-09-28T21:27:56.847Z,99635.16
2022-09-28T21:31:22.628Z,99636.28
2022-09-28T21:34:47.303Z,99636.28
2022-09-28T21:38:10.237Z,99637.44
2022-09-28T21:41:33.194Z,99640.72
2022-09-28T21:44:59.470Z,99632.97
2022-09-28T21:48:22.496Z,99633.22
2022-09-28T21:51:47.500Z,99604.03
2022-09-28T21:55:11.482Z,99635.72
2022-09-28T21:58:36.321Z,99648.59
2022-09-28T22:02:00.744Z,99640.78
2022-09-28T22:05:23.949Z,99637.44
2022-09-28T22:08:47.012Z,99639.38
2022-09-28T22:12:10.068Z,99640.22
2022-09-28T22:15:32.869Z,99638.34
2022-09-28T22:18:57.706Z,99641.88
2022-09-28T22:22:20.348Z,99599.56
2022-09-28T22:25:43.247Z,99617.09
2022-09-28T22:29:08.456Z,99602.69
2022-09-28T22:32:32.537Z,99620.38
2022-09-28T22:35:57.445Z,99616.09
2022-09-28T22:39:20.099Z,99601.94
2022-09-28T22:42:43.341Z,99613.81
2022-09-28T22:46:08.071Z,99615.66
2022-09-28T22:49:30.512Z,99613.97
2022-09-28T22:52:56.751Z,99613.19
2022-09-28T22:56:19.715Z,99605.44
2022-09-28T22:59:42.464Z,99612.38
2022-09-28T23:03:05.386Z,99607.22
2022-09-28T23:06:31.255Z,99608.06
2022-09-28T23:09:58.514Z,99598.50
2022-09-28T23:13:21.577Z,99598.69
2022-09-28T23:16:44.129Z,99593.53
2022-09-28T23:20:08.529Z,99597.06
2022-09-28T23:23:32.502Z,99589.41
2022-09-28T23:26:57.510Z,99591.84
2022-09-28T23:30:21.727Z,99572.50
2022-09-28T23:33:45.743Z,99585.09
2022-09-28T23:37:09.060Z,99580.94
2022-09-28T23:40:32.887Z,99574.50
2022-09-28T23:43:57.729Z,99587.97
2022-09-28T23:47:20.900Z,99573.50
2022-09-28T23:50:44.883Z,99574.19
2022-09-28T23:54:08.339Z,99573.69
2022-09-28T23:57:31.836Z,99579.38
